Time;durP1;ratioP1;P1;durP2;ratioP2;P2;SDS_P1;SDS_P2;PMS_P1;PMS_P2;Temp;Humidity;BMP_temperature;BMP_pressure;BME280_temperature;BME280_humidity;BME280_pressure;Samples;Min_cycle;Max_cycle;Signal;HPM_P1;HPM_P2
2021/04/29 05:30:39;;;;;;;24.55;15.23;;;;;;;6.68;60.53;99600.19;1768870;76;26989;-55
2021/04/29 05:33:07;;;;;;;26.55;15.32;;;;;;;6.86;60.74;99599.84;1735015;82;25651;-55
2021/04/29 05:35:34;;;;;;;21.07;15.60;;;;;;;6.96;60.46;99600.16;1735037;82;25614;-56
2021/04/29 05:38:00;;;;;;;24.23;15.10;;;;;;;7.09;60.85;99603.37;1730506;82;25641;-55
2021/04/29 05:40:27;;;;;;;26.68;15.75;;;;;;;7.20;60.35;99599.11;1735271;82;25560;-54
2021/04/29 05:42:54;;;;;;;27.85;15.75;;;;;;;7.31;60.36;99588.38;1706671;82;25785;-55
2021/04/29 05:45:21;;;;;;;27.58;16.15;;;;;;;7.45;60.37;99583.73;1709185;82;25592;-55
2021/04/29 05:47:48;;;;;;;24.27;16.95;;;;;;;7.61;60.49;99586.05;1729305;80;25674;-56
2021/04/29 05:50:16;;;;;;;24.70;15.75;;;;;;;7.71;60.14;99579.08;1720689;81;25597;-54
2021/04/29 05:52:42;;;;;;;24.40;15.65;;;;;;;7.85;59.87;99583.86;1742673;80;25701;-54
2021/04/29 05:55:10;;;;;;;27.90;16.35;;;;;;;7.98;59.89;99576.78;1721163;83;25715;-54
2021/04/29 05:57:37;;;;;;;23.77;14.63;;;;;;;8.13;59.74;99580.98;1721314;83;25547;-54
2021/04/29 06:00:08;;;;;;;29.67;16.65;;;;;;;8.28;59.69;99574.97;1700519;83;26329;-54
2021/04/29 06:02:35;;;;;;;29.00;16.60;;;;;;;8.41;59.31;99573.51;1743262;80;25742;-54
2021/04/29 06:05:04;;;;;;;24.63;16.00;;;;;;;8.54;59.00;99569.13;1690041;83;26274;-53
2021/04/29 06:07:31;;;;;;;22.48;15.08;;;;;;;8.70;58.92;99571.38;1692081;84;25796;-54
2021/04/29 06:09:57;;;;;;;25.88;15.70;;;;;;;8.85;58.68;99572.85;1700866;83;25587;-56
2021/04/29 06:12:24;;;;;;;22.85;16.32;;;;;;;8.98;58.46;99572.71;1766877;80;25613;-55
2021/04/29 06:14:50;;;;;;;28.12;15.58;;;;;;;9.15;58.21;99569.80;1767018;81;26171;-53
2021/04/29 06:17:17;;;;;;;26.57;15.15;;;;;;;9.25;58.00;99572.19;1766670;81;25533;-54
2021/04/29 06:19:44;;;;;;;28.42;15.98;;;;;;;9.34;57.81;99562.73;1764311;80;25765;-54
2021/04/29 06:22:10;;;;;;;23.07;15.05;;;;;;;9.47;57.49;99567.73;1735797;82;25526;-55
2021/04/29 06:24:37;;;;;;;30.57;15.70;;;;;;;9.63;57.31;99558.02;1735720;82;25612;-54
2021/04/29 06:27:05;;;;;;;23.95;16.05;;;;;;;9.76;56.92;99560.31;1735832;82;25594;-56
2021/04/29 06:29:34;;;;;;;28.10;15.32;;;;;;;9.86;56.74;99565.94;1736055;82;25758;-57
2021/04/29 06:32:02;;;;;;;22.67;15.13;;;;;;;10.05;56.76;99543.37;1741019;82;25711;-56
2021/04/29 06:34:28;;;;;;;26.48;16.55;;;;;;;10.27;56.47;99557.77;1740303;80;25553;-55
2021/04/29 06:36:55;;;;;;;20.50;15.78;;;;;;;10.48;55.91;99548.95;1747985;80;25679;-55
2021/04/29 06:39:21;;;;;;;20.77;15.40;;;;;;;10.58;55.27;99548.02;1746970;80;25793;-55
2021/04/29 06:41:48;;;;;;;25.02;15.32;;;;;;;10.69;55.13;99543.01;1758847;80;25574;-54
2021/04/29 06:44:14;;;;;;;22.98;14.70;;;;;;;10.82;54.83;99543.33;1736158;80;25773;-55
2021/04/29 06:46:43;;;;;;;27.27;16.27;;;;;;;10.90;54.61;99543.05;1712444;82;26389;-55
2021/04/29 06:49:09;;;;;;;19.50;14.70;;;;;;;11.13;55.00;99538.09;1712120;83;25558;-55
2021/04/29 06:51:35;;;;;;;20.48;14.33;;;;;;;11.44;54.27;99536.89;1712199;83;25609;-54
2021/04/29 06:54:04;;;;;;;21.17;14.38;;;;;;;11.68;53.92;99532.11;1691490;83;25587;-56
2021/04/29 06:56:31;;;;;;;18.95;14.28;;;;;;;11.99;53.99;99532.78;1731319;82;26253;-55
2021/04/29 06:58:57;;;;;;;19.80;14.23;;;;;;;12.25;53.41;99540.59;1754181;80;25414;-55
2021/04/29 07:01:24;;;;;;;19.62;14.73;;;;;;;12.54;52.43;99546.34;1760855;80;25554;-53
2021/04/29 07:03:50;;;;;;;18.15;14.23;;;;;;;12.69;51.82;99548.36;1737106;80;25648;-56
2021/04/29 07:06:17;;;;;;;18.48;13.80;;;;;;;12.87;51.25;99537.25;1715581;80;25599;-54
2021/04/29 07:08:43;;;;;;;18.62;13.95;;;;;;;13.02;51.01;99537.89;1740032;81;25759;-55
2021/04/29 07:11:10;;;;;;;21.77;14.75;;;;;;;13.25;50.83;99541.45;1740089;82;26278;-55
2021/04/29 07:13:37;;;;;;;16.65;14.05;;;;;;;13.51;50.55;99543.75;1742822;81;25665;-57
2021/04/29 07:16:05;;;;;;;21.87;15.00;;;;;;;13.74;50.53;99542.63;1711841;83;25860;-56
2021/04/29 07:18:33;;;;;;;20.30;14.47;;;;;;;14.10;50.28;99545.47;1712158;83;25600;-56
2021/04/29 07:20:59;;;;;;;19.27;14.30;;;;;;;14.49;50.08;99541.52;1712198;83;26553;-55
2021/04/29 07:23:27;;;;;;;18.35;14.18;;;;;;;14.92;49.07;99548.75;1711891;83;25581;-55
2021/04/29 07:25:53;;;;;;;19.10;14.35;;;;;;;15.24;48.28;99541.83;1712335;83;25653;-55
2021/04/29 07:28:21;;;;;;;18.60;14.28;;;;;;;15.41;46.73;99545.25;1712305;83;25557;-55
2021/04/29 07:30:50;;;;;;;18.12;13.45;;;;;;;15.50;47.14;99537.66;1712132;83;25642;-56
2021/04/29 07:33:18;;;;;;;17.25;14.07;;;;;;;15.83;46.75;99541.23;1712321;83;25785;-55
2021/04/29 07:35:46;;;;;;;21.02;14.53;;;;;;;16.03;45.93;99540.58;1716362;82;25565;-56
2021/04/29 07:38:14;;;;;;;;;;;;;;;16.16;45.65;99529.50;1744072;82;26233;-55
2021/04/29 07:40:42;;;;;;;19.62;12.80;;;;;;;16.42;45.41;99530.88;1741991;82;25694;-55
2021/04/29 07:43:09;;;;;;;24.15;14.07;;;;;;;16.75;44.81;99523.95;1741912;81;25621;-55
2021/04/29 07:45:37;;;;;;;18.12;13.18;;;;;;;16.93;43.64;99531.03;1741717;81;25710;-55
2021/04/29 07:48:05;;;;;;;18.17;12.82;;;;;;;17.12;43.99;99530.09;1741795;82;25534;-55
2021/04/29 07:50:32;;;;;;;20.90;13.32;;;;;;;17.41;43.12;99527.70;1740834;80;25601;-55
2021/04/29 07:53:00;;;;;;;14.90;12.40;;;;;;;17.41;42.09;99528.29;1740111;82;25662;-56
2021/04/29 07:55:27;;;;;;;17.25;13.45;;;;;;;17.50;42.04;99526.03;1739883;81;25593;-55
2021/04/29 07:57:55;;;;;;;16.73;13.90;;;;;;;17.54;41.26;99518.09;1740463;81;25787;-55
2021/04/29 08:00:23;;;;;;;15.63;12.70;;;;;;;17.61;41.54;99525.58;1740176;81;26357;-56
2021/04/29 08:02:49;;;;;;;20.27;12.93;;;;;;;17.74;41.35;99520.61;1734911;81;25618;-56
2021/04/29 08:05:17;;;;;;;15.72;12.75;;;;;;;17.93;41.84;99516.93;1740811;82;25621;-56
2021/04/29 08:07:44;;;;;;;19.48;12.88;;;;;;;18.15;41.43;99511.62;1742019;81;25459;-56
2021/04/29 08:10:12;;;;;;;18.98;13.08;;;;;;;18.18;40.35;99514.97;1727185;81;25898;-55
2021/04/29 08:12:39;;;;;;;16.97;13.30;;;;;;;17.96;39.89;99519.48;1714406;82;25730;-56
2021/04/29 08:15:09;;;;;;;25.80;13.80;;;;;;;17.78;40.03;99513.24;1712005;83;25618;-56
2021/04/29 08:17:36;;;;;;;18.07;12.50;;;;;;;17.55;39.96;99507.37;1712124;83;25610;-55
2021/04/29 08:20:05;;;;;;;20.45;13.90;;;;;;;17.65;40.80;99509.20;1712174;83;25567;-55
2021/04/29 08:22:32;;;;;;;18.15;12.55;;;;;;;17.71;40.47;99503.61;1712210;83;26620;-55
2021/04/29 08:24:59;;;;;;;14.75;12.37;;;;;;;17.74;40.40;99502.83;1712403;83;25591;-55
2021/04/29 08:27:27;;;;;;;18.10;12.78;;;;;;;17.81;40.64;99496.64;1712430;83;25561;-55
2021/04/29 08:29:54;;;;;;;17.37;12.60;;;;;;;17.89;40.02;99489.55;1712176;83;25645;-55
2021/04/29 08:32:22;;;;;;;14.85;13.03;;;;;;;17.94;40.17;99484.88;1704533;83;25753;-54
2021/04/29 08:34:49;;;;;;;17.27;12.28;;;;;;;18.05;40.20;99484.39;1696532;84;25722;-55
2021/04/29 08:37:19;;;;;;;19.52;12.73;;;;;;;18.33;39.58;99484.39;1696122;84;25664;-54
2021/04/29 08:39:46;;;;;;;17.12;12.35;;;;;;;18.66;39.93;99477.92;1696380;84;25609;-54
2021/04/29 08:42:14;;;;;;;15.18;11.95;;;;;;;18.74;39.14;99477.38;1699637;82;25649;-54
2021/04/29 08:44:43;;;;;;;17.87;11.97;;;;;;;18.88;39.72;99471.21;1709467;82;25673;-53
2021/04/29 08:47:10;;;;;;;19.50;13.00;;;;;;;19.27;39.72;99463.70;1705695;83;26304;-54
2021/04/29 08:49:39;;;;;;;16.62;12.20;;;;;;;19.57;38.75;99463.38;1705841;84;25666;-54
2021/04/29 08:52:08;;;;;;;18.85;11.78;;;;;;;19.94;38.85;99467.16;1705489;84;25753;-54
2021/04/29 08:54:38;;;;;;;18.47;11.93;;;;;;;20.37;38.63;99458.08;1706954;82;25633;-55
2021/04/29 08:57:06;;;;;;;14.15;11.57;;;;;;;20.72;37.84;99460.55;1714451;82;25646;-54
2021/04/29 08:59:33;;;;;;;14.47;12.10;;;;;;;20.92;37.15;99451.25;1705305;83;26652;-56
2021/04/29 09:02:00;;;;;;;16.12;10.60;;;;;;;21.10;36.55;99442.16;1706047;83;25398;-56
2021/04/29 09:04:30;;;;;;;14.98;10.32;;;;;;;21.30;36.49;99443.22;1706021;84;25817;-54
2021/04/29 09:06:56;;;;;;;15.43;10.88;;;;;;;21.44;35.89;99445.09;1703601;83;25663;-54
2021/04/29 09:09:23;;;;;;;13.38;10.60;;;;;;;21.55;35.46;99448.56;1706583;84;25536;-54
2021/04/29 09:11:55;;;;;;;12.53;10.88;;;;;;;21.66;35.06;99441.62;1706589;84;25762;-54
2021/04/29 09:14:33;;;;;;;11.85;10.25;;;;;;;21.66;33.86;99439.44;1724356;80;25642;-54
2021/04/29 09:17:00;;;;;;;16.35;11.63;;;;;;;21.62;34.53;99433.97;1726342;82;25622;-55
2021/04/29 09:19:30;;;;;;;14.13;10.35;;;;;;;21.47;34.13;99432.51;1726214;82;25965;-53
2021/04/29 09:21:58;;;;;;;18.95;11.83;;;;;;;21.52;34.85;99437.58;1726052;82;25653;-55
2021/04/29 09:24:40;;;;;;;12.68;10.75;;;;;;;21.72;33.85;99436.45;1725645;82;25912;-56
2021/04/29 09:27:20;;;;;;;14.07;11.83;;;;;;;21.41;33.46;99446.66;1695441;84;25574;-55
2021/04/29 09:30:00;;;;;;;13.72;11.25;;;;;;;21.02;33.54;99431.17;1684375;83;25626;-55
2021/04/29 09:32:34;;;;;;;13.20;11.80;;;;;;;20.83;34.45;99424.80;1658712;86;25636;-54
2021/04/29 09:35:08;;;;;;;15.23;10.70;;;;;;;21.00;34.55;99424.53;1721689;83;25614;-54
2021/04/29 09:37:38;;;;;;;13.58;10.63;;;;;;;20.98;33.21;99429.65;1734708;80;25754;-55
2021/04/29 09:40:19;;;;;;;15.53;11.03;;;;;;;20.86;34.14;99406.14;1772125;80;25691;-54
2021/04/29 09:42:48;;;;;;;16.60;10.72;;;;;;;20.92;33.77;99399.03;1704503;84;25794;-55
2021/04/29 09:48:11;;;;;;;15.00;10.68;;;;;;;20.99;33.34;99407.83;1848513;76;25593;-55
2021/04/29 09:50:41;;;;;;;13.03;10.90;;;;;;;20.85;33.37;99404.57;1826350;77;25579;-55
2021/04/29 09:53:12;;;;;;;16.77;10.85;;;;;;;20.73;33.02;99418.16;1852586;77;25839;-55
2021/04/29 09:55:44;;;;;;;11.75;10.38;;;;;;;20.58;33.80;99398.17;1782898;78;25621;-55
2021/04/29 09:58:17;;;;;;;15.58;11.20;;;;;;;20.63;34.07;99396.41;1787571;77;25570;-55
2021/04/29 10:00:51;;;;;;;15.83;11.03;;;;;;;20.59;33.36;99405.24;1849863;77;25680;-55
2021/04/29 10:03:20;;;;;;;16.02;12.13;;;;;;;20.47;34.21;99390.58;1849969;77;25566;-55
2021/04/29 10:05:53;;;;;;;13.58;10.98;;;;;;;20.56;34.44;99386.80;1849515;77;32138;-55
2021/04/29 10:08:23;;;;;;;15.83;11.75;;;;;;;20.50;34.74;99385.07;1849912;77;25654;-55
2021/04/29 10:10:54;;;;;;;15.18;11.43;;;;;;;20.62;35.19;99385.25;1850592;77;25434;-55
2021/04/29 10:13:26;;;;;;;13.55;11.15;;;;;;;20.64;34.43;99382.11;1778566;80;25401;-56
2021/04/29 10:15:53;;;;;;;13.85;10.93;;;;;;;20.64;34.10;99367.00;1799803;79;25442;-55
2021/04/29 10:18:19;;;;;;;14.28;9.98;;;;;;;20.54;33.61;99369.95;1778558;80;25753;-55
2021/04/29 10:20:49;;;;;;;13.40;10.68;;;;;;;20.80;34.13;99367.29;1788663;79;25449;-56
2021/04/29 10:23:20;;;;;;;13.25;10.70;;;;;;;21.20;34.13;99368.45;1753287;80;25468;-56
2021/04/29 10:25:53;;;;;;;17.25;11.55;;;;;;;21.70;33.67;99365.31;1762067;80;25410;-56
2021/04/29 10:28:34;;;;;;;13.78;11.15;;;;;;;22.11;32.81;99358.23;1783345;80;25472;-56
2021/04/29 10:31:23;;;;;;;14.95;10.63;;;;;;;22.53;33.06;99348.70;1782878;80;26851;-56
2021/04/29 10:34:05;;;;;;;12.20;10.40;;;;;;;23.02;32.23;99344.30;1781952;80;25422;-55
2021/04/29 10:36:42;;;;;;;17.52;9.73;;;;;;;23.43;31.56;99330.87;1782787;80;25436;-56
2021/04/29 10:39:22;;;;;;;16.42;10.95;;;;;;;23.76;31.53;99350.42;1750735;81;25467;-56
2021/04/29 10:42:03;;;;;;;12.90;9.90;;;;;;;23.91;30.17;99351.58;1724756;83;25381;-56
2021/04/29 10:44:44;;;;;;;13.65;10.98;;;;;;;23.96;30.70;99341.43;1724814;83;27170;-64
2021/04/29 10:47:24;;;;;;;11.80;10.13;;;;;;;24.19;29.64;99339.20;1752882;81;25729;-64
2021/04/29 10:49:53;;;;;;;13.48;9.83;;;;;;;24.21;29.82;99334.02;1767930;78;25749;-63
2021/04/29 10:52:20;;;;;;;15.15;10.10;;;;;;;24.02;30.23;99340.52;1733925;81;25699;-64
2021/04/29 10:54:53;;;;;;;12.73;9.28;;;;;;;24.07;29.68;99329.56;1772594;79;25369;-63
2021/04/29 10:57:20;;;;;;;14.95;8.80;;;;;;;23.83;29.99;99332.97;1767193;79;25872;-63
2021/04/29 10:59:55;;;;;;;12.28;8.78;;;;;;;23.59;30.12;99330.81;1795708;79;25447;-56
2021/04/29 11:02:30;;;;;;;11.78;8.18;;;;;;;23.25;30.19;99322.89;1795849;79;25432;-56
2021/04/29 11:04:58;;;;;;;12.10;7.33;;;;;;;22.94;30.57;99327.69;1785804;80;25431;-56
2021/04/29 11:07:29;;;;;;;8.93;7.62;;;;;;;23.01;30.93;99311.63;1795936;79;25357;-56
2021/04/29 11:10:12;;;;;;;12.05;7.42;;;;;;;23.08;31.03;99317.83;1796068;79;26841;-56
2021/04/29 11:12:52;;;;;;;18.02;9.25;;;;;;;23.00;30.98;99312.21;1795890;79;25447;-57
2021/04/29 11:15:33;;;;;;;12.33;7.95;;;;;;;22.90;30.99;99313.16;1753683;79;25541;-56
2021/04/29 11:18:19;;;;;;;9.85;7.70;;;;;;;22.98;32.06;99295.92;1791961;79;25426;-56
2021/04/29 11:20:55;;;;;;;7.10;6.12;;;;;;;23.42;31.48;99304.48;1741246;81;25446;-56
2021/04/29 11:23:44;;;;;;;7.83;6.78;;;;;;;23.46;30.87;99311.31;1764425;81;25769;-55
2021/04/29 11:26:16;;;;;;;9.50;5.72;;;;;;;23.50;30.62;99296.26;1738407;79;25468;-56
2021/04/29 11:28:50;;;;;;;6.78;4.45;;;;;;;23.44;29.34;99302.07;1734029;82;25408;-57
2021/04/29 11:31:18;;;;;;;6.05;4.78;;;;;;;23.24;28.87;99299.28;1733410;82;25799;-55
2021/04/29 11:33:48;;;;;;;8.40;4.80;;;;;;;23.55;28.77;99293.63;1733699;82;25413;-57
2021/04/29 11:36:27;;;;;;;6.42;4.30;;;;;;;23.61;26.98;99299.42;1733806;82;25712;-56
2021/04/29 11:39:00;;;;;;;6.05;4.58;;;;;;;23.49;27.78;99303.58;1735374;81;25699;-56
2021/04/29 11:41:29;;;;;;;6.15;3.90;;;;;;;23.54;25.53;99320.27;1764287;81;25458;-56
2021/04/29 11:44:04;;;;;;;5.10;4.15;;;;;;;23.53;26.39;99297.41;1764284;81;25780;-56
2021/04/29 11:46:33;;;;;;;6.83;4.30;;;;;;;23.81;25.65;99309.13;1736274;81;25373;-56
2021/04/29 11:49:08;;;;;;;6.92;4.40;;;;;;;23.99;26.20;99301.31;1792143;80;25815;-55
2021/04/29 11:51:51;;;;;;;12.50;4.60;;;;;;;24.04;26.37;99292.53;1790545;80;25398;-55
2021/04/29 11:54:18;;;;;;;5.85;4.33;;;;;;;24.06;24.61;99314.20;1792020;80;25395;-55
2021/04/29 11:56:49;;;;;;;9.58;4.80;;;;;;;23.76;26.11;99304.09;1791981;80;25435;-56
2021/04/29 11:59:17;;;;;;;9.48;5.30;;;;;;;23.71;26.20;99286.64;1792116;80;25454;-56
2021/04/29 12:01:56;;;;;;;9.70;4.75;;;;;;;23.77;27.32;99276.65;1777419;80;25791;-55
2021/04/29 12:04:24;;;;;;;5.47;4.90;;;;;;;23.88;27.96;99279.25;1760614;81;25376;-55
2021/04/29 12:07:02;;;;;;;7.40;5.33;;;;;;;23.81;28.03;99285.08;1760798;81;25409;-56
2021/04/29 12:09:38;;;;;;;11.18;6.15;;;;;;;23.65;29.27;99273.91;1762755;80;25372;-55
2021/04/29 12:12:16;;;;;;;7.67;5.45;;;;;;;23.65;29.99;99288.51;1774538;80;25442;-55
2021/04/29 12:14:52;;;;;;;10.38;5.95;;;;;;;23.49;30.55;99265.72;1759785;81;25738;-56
2021/04/29 12:17:20;;;;;;;9.15;5.67;;;;;;;23.63;31.14;99265.28;1760573;81;25444;-55
2021/04/29 12:19:51;;;;;;;9.30;6.43;;;;;;;23.95;31.30;99263.92;1762190;80;25429;-56
2021/04/29 12:22:22;;;;;;;8.48;6.20;;;;;;;24.01;31.02;99261.62;1791925;80;25375;-57
2021/04/29 12:24:50;;;;;;;13.20;6.55;;;;;;;24.25;30.82;99257.39;1791947;80;25538;-56
2021/04/29 12:27:22;;;;;;;8.00;6.22;;;;;;;24.07;30.63;99254.21;1791974;80;25782;-56
2021/04/29 12:30:08;;;;;;;10.15;6.62;;;;;;;23.81;30.67;99247.01;1792007;80;25383;-56
2021/04/29 12:32:41;;;;;;;10.63;6.75;;;;;;;23.69;31.30;99241.52;1791973;80;25355;-57
2021/04/29 12:35:08;;;;;;;6.62;5.67;;;;;;;23.83;31.53;99244.63;1791563;80;25427;-57
2021/04/29 12:37:35;;;;;;;8.80;6.47;;;;;;;23.91;30.70;99241.91;1791965;80;25429;-57
2021/04/29 12:40:04;;;;;;;10.65;6.75;;;;;;;24.08;30.76;99243.36;1788443;80;25704;-57
2021/04/29 12:42:30;;;;;;;7.78;6.08;;;;;;;24.15;30.74;99240.44;1787190;79;25438;-57
2021/04/29 12:45:00;;;;;;;6.70;5.70;;;;;;;24.05;30.66;99237.45;1775951;80;25758;-57
2021/04/29 12:47:33;;;;;;;8.15;6.15;;;;;;;23.83;30.37;99238.49;1776357;80;25345;-57
2021/04/29 12:50:09;;;;;;;9.65;6.50;;;;;;;23.49;30.52;99238.73;1761668;80;25393;-56
2021/04/29 12:52:50;;;;;;;9.73;6.28;;;;;;;23.12;30.92;99244.11;1757393;81;25690;-56
2021/04/29 12:55:19;;;;;;;9.93;5.90;;;;;;;22.78;31.16;99239.31;1756136;81;25453;-56
2021/04/29 12:57:47;;;;;;;6.87;5.47;;;;;;;22.59;31.60;99251.19;1757384;81;25381;-57
2021/04/29 13:00:15;;;;;;;7.62;5.30;;;;;;;22.43;31.87;99235.91;1757378;81;25427;-56
2021/04/29 13:02:43;;;;;;;7.63;4.87;;;;;;;22.40;31.83;99235.34;1745670;79;25516;-57
2021/04/29 13:05:16;;;;;;;5.30;4.50;;;;;;;22.25;31.43;99238.25;1768590;79;26651;-56
2021/04/29 13:07:44;;;;;;;6.95;4.50;;;;;;;22.13;31.02;99226.42;1729524;83;25414;-56
2021/04/29 13:10:21;;;;;;;6.92;4.33;;;;;;;22.09;31.37;99213.31;1726574;83;25425;-57
2021/04/29 13:12:54;;;;;;;5.55;4.10;;;;;;;22.19;31.57;99211.78;1759801;81;25409;-56
2021/04/29 13:15:26;;;;;;;4.87;3.98;;;;;;;22.59;30.83;99215.98;1759951;81;25355;-57
2021/04/29 13:17:53;;;;;;;5.42;3.62;;;;;;;22.78;27.08;99228.28;1759836;80;25693;-57
2021/04/29 13:20:19;;;;;;;4.75;3.72;;;;;;;22.69;27.94;99206.16;1759707;81;25493;-56
2021/04/29 13:22:49;;;;;;;5.42;3.87;;;;;;;22.48;27.41;99207.88;1759914;80;25376;-56
2021/04/29 13:25:18;;;;;;;8.03;3.85;;;;;;;22.26;28.11;99206.77;1759875;81;25387;-56
2021/04/29 13:27:47;;;;;;;8.03;5.15;;;;;;;22.27;29.11;99208.34;1759891;80;25328;-56
2021/04/29 13:30:15;;;;;;;5.92;4.75;;;;;;;22.51;29.40;99211.95;1760012;80;25691;-56
2021/04/29 13:32:42;;;;;;;11.47;5.37;;;;;;;22.73;29.60;99217.13;1759956;81;25373;-56
2021/04/29 13:35:10;;;;;;;13.03;5.45;;;;;;;22.82;29.91;99205.59;1742590;81;25437;-56
2021/04/29 13:37:38;;;;;;;6.45;4.33;;;;;;;22.92;29.52;99233.59;1759749;81;25387;-56
2021/04/29 13:40:08;;;;;;;7.12;4.60;;;;;;;22.85;28.10;99201.40;1759832;81;25457;-56
2021/04/29 13:42:34;;;;;;;5.35;4.17;;;;;;;22.75;28.00;99194.08;1759825;80;25758;-56
2021/04/29 13:45:02;;;;;;;4.97;3.98;;;;;;;22.74;28.83;99198.02;1759060;81;25344;-56
2021/04/29 13:47:29;;;;;;;5.60;4.20;;;;;;;22.72;27.92;99188.80;1761734;81;25448;-57
2021/04/29 13:49:55;;;;;;;4.05;3.25;;;;;;;22.73;27.49;99174.41;1759458;81;25416;-57
2021/04/29 13:52:22;;;;;;;7.12;4.03;;;;;;;22.83;27.32;99196.11;1759526;81;25401;-56
2021/04/29 13:54:49;;;;;;;4.35;3.55;;;;;;;22.91;26.58;99176.88;1749979;82;25913;-57
2021/04/29 13:57:15;;;;;;;8.05;4.42;;;;;;;22.90;26.54;99171.17;1753496;81;25444;-57
2021/04/29 13:59:43;;;;;;;10.50;4.42;;;;;;;22.94;27.62;99178.80;1759682;80;25376;-56
2021/04/29 14:02:10;;;;;;;7.55;4.50;;;;;;;22.84;28.32;99175.63;1799150;79;25399;-56
2021/04/29 14:04:37;;;;;;;7.75;4.70;;;;;;;22.67;28.12;99173.34;1783058;80;25415;-56
2021/04/29 14:07:04;;;;;;;8.68;4.70;;;;;;;22.56;28.41;99174.29;1798870;79;25700;-56
2021/04/29 14:09:31;;;;;;;8.43;4.92;;;;;;;22.40;28.82;99171.98;1782925;80;25481;-56
2021/04/29 14:11:57;;;;;;;7.37;5.00;;;;;;;22.25;29.10;99162.52;1791627;79;25422;-56
2021/04/29 14:14:24;;;;;;;8.60;5.40;;;;;;;22.14;29.49;99161.30;1740762;79;25559;-56
2021/04/29 14:16:52;;;;;;;7.25;4.87;;;;;;;22.07;29.83;99168.89;1725626;81;25349;-56
2021/04/29 14:19:19;;;;;;;7.97;4.55;;;;;;;22.04;30.05;99164.98;1753203;80;25780;-56
2021/04/29 14:21:47;;;;;;;6.33;5.12;;;;;;;21.91;30.09;99173.61;1754970;80;25463;-57
2021/04/29 14:24:14;;;;;;;10.40;5.13;;;;;;;21.77;30.32;99180.08;1745251;81;25504;-58
2021/04/29 14:26:41;;;;;;;21.80;5.90;;;;;;;21.55;30.47;99164.42;1741319;81;25441;-57
2021/04/29 14:29:08;;;;;;;9.65;5.80;;;;;;;21.34;30.90;99156.56;1738868;81;25388;-57
2021/04/29 14:31:36;;;;;;;13.83;5.15;;;;;;;21.14;31.03;99144.60;1743774;81;25872;-57
2021/04/29 14:34:03;;;;;;;10.65;5.53;;;;;;;21.03;31.58;99132.34;1738444;81;25443;-57
2021/04/29 14:36:31;;;;;;;7.10;4.72;;;;;;;21.06;31.83;99138.38;1743364;80;25391;-57
2021/04/29 14:38:57;;;;;;;7.75;5.42;;;;;;;21.02;31.55;99150.02;1741128;81;25444;-56
2021/04/29 14:41:25;;;;;;;9.43;5.10;;;;;;;20.89;31.30;99140.91;1745004;81;25375;-57
2021/04/29 14:43:52;;;;;;;21.68;5.92;;;;;;;20.77;31.80;99141.42;1752038;81;25830;-56
2021/04/29 14:46:19;;;;;;;10.23;5.40;;;;;;;20.77;31.79;99145.55;1737078;81;25540;-56
2021/04/29 14:48:46;;;;;;;7.92;5.55;;;;;;;20.70;31.69;99141.46;1743593;81;25359;-57
2021/04/29 14:51:15;;;;;;;9.15;6.10;;;;;;;20.62;31.70;99143.50;1742662;81;25589;-56
2021/04/29 14:53:41;;;;;;;20.67;6.10;;;;;;;20.50;32.02;99126.89;1753859;81;25388;-56
2021/04/29 14:56:09;;;;;;;12.28;6.25;;;;;;;20.46;32.46;99130.84;1737332;81;26739;-58
2021/04/29 14:58:36;;;;;;;13.45;6.45;;;;;;;20.47;32.88;99124.17;1745382;81;25450;-55
2021/04/29 15:01:04;;;;;;;9.58;6.55;;;;;;;20.47;33.32;99122.20;1720419;81;25749;-57
2021/04/29 15:03:30;;;;;;;14.30;6.40;;;;;;;20.51;33.49;99125.69;1761346;81;25567;-56
2021/04/29 15:05:58;;;;;;;7.40;5.85;;;;;;;20.56;33.90;99126.45;1752401;81;25432;-57
2021/04/29 15:08:27;;;;;;;9.55;6.45;;;;;;;20.59;34.14;99127.02;1757877;81;30827;-56
2021/04/29 15:10:53;;;;;;;9.33;6.92;;;;;;;20.58;34.25;99121.33;1735749;81;25451;-56
2021/04/29 15:13:20;;;;;;;12.98;6.87;;;;;;;20.54;34.36;99117.24;1733164;82;25364;-56
2021/04/29 15:15:47;;;;;;;9.90;6.33;;;;;;;20.46;34.50;99117.11;1733292;82;25441;-56
2021/04/29 15:18:14;;;;;;;15.78;6.58;;;;;;;20.47;34.74;99117.31;1733232;82;25437;-57
2021/04/29 15:20:41;;;;;;;9.85;6.03;;;;;;;20.45;34.85;99114.16;1733268;82;25892;-56
2021/04/29 15:23:07;;;;;;;12.03;6.60;;;;;;;20.48;35.03;99124.34;1733087;82;25520;-56
2021/04/29 15:25:34;;;;;;;13.50;7.15;;;;;;;20.44;35.09;99118.88;1733206;82;25360;-56
2021/04/29 15:28:01;;;;;;;15.30;6.15;;;;;;;20.38;35.13;99116.97;1733168;82;25449;-56
2021/04/29 15:30:27;;;;;;;13.55;7.28;;;;;;;20.32;35.40;99118.77;1733175;82;25392;-56
2021/04/29 15:32:54;;;;;;;11.97;7.28;;;;;;;20.26;35.60;99105.30;1733302;82;26533;-56
2021/04/29 15:35:20;;;;;;;10.43;7.33;;;;;;;20.15;35.92;99110.08;1733276;82;25625;-56
2021/04/29 15:37:47;;;;;;;10.05;6.95;;;;;;;20.02;36.75;99117.98;1700622;82;25765;-56
2021/04/29 15:40:15;;;;;;;14.13;7.95;;;;;;;19.89;36.80;99099.85;1733010;82;25377;-57
2021/04/29 15:42:42;;;;;;;16.02;8.40;;;;;;;19.82;37.12;99104.58;1702667;82;25479;-56
2021/04/29 15:45:14;;;;;;;12.85;7.75;;;;;;;19.71;37.63;99116.36;1733103;82;25703;-55
2021/04/29 15:47:41;;;;;;;9.75;7.37;;;;;;;19.59;38.06;99100.36;1733017;82;25376;-56
2021/04/29 15:50:10;;;;;;;10.23;8.43;;;;;;;19.51;38.40;99097.45;1733175;82;25399;-57
2021/04/29 15:52:37;;;;;;;;;;;;;;;19.43;38.84;99091.80;1735719;82;25403;-56
2021/04/29 15:55:07;;;;;;;9.75;7.62;;;;;;;19.39;39.10;99095.94;1733178;82;25439;-56
2021/04/29 15:57:35;;;;;;;10.58;8.08;;;;;;;19.36;39.38;99095.38;1732887;82;26665;-56
2021/04/29 16:00:06;;;;;;;12.10;7.65;;;;;;;19.32;39.89;99089.89;1750186;81;25399;-56
2021/04/29 16:02:33;;;;;;;14.00;8.45;;;;;;;19.29;39.93;99081.11;1733860;80;25420;-57
2021/04/29 16:05:00;;;;;;;16.97;8.60;;;;;;;19.30;40.09;99090.10;1732912;82;25459;-56
2021/04/29 16:07:27;;;;;;;17.57;8.65;;;;;;;19.26;40.44;99083.27;1755627;81;25463;-57
2021/04/29 16:09:54;;;;;;;13.40;8.03;;;;;;;19.25;40.64;99078.95;1732715;82;25903;-56
2021/04/29 16:12:21;;;;;;;10.70;7.87;;;;;;;19.24;40.74;99080.15;1732698;82;25790;-55
2021/04/29 16:14:48;;;;;;;10.78;8.13;;;;;;;19.22;40.78;99068.78;1743492;81;25368;-55
2021/04/29 16:17:14;;;;;;;17.07;7.78;;;;;;;19.18;41.06;99066.05;1763079;81;25367;-56
2021/04/29 16:19:41;;;;;;;14.35;8.08;;;;;;;19.14;41.57;99063.16;1763039;81;25356;-57
2021/04/29 16:22:07;;;;;;;11.45;8.95;;;;;;;19.09;41.46;99064.93;1755630;79;25779;-55
2021/04/29 16:24:34;;;;;;;10.80;8.83;;;;;;;19.03;42.01;99070.02;1747738;79;25457;-56
2021/04/29 16:27:01;;;;;;;13.10;8.38;;;;;;;18.98;42.27;99066.31;1763031;81;25381;-57
2021/04/29 16:29:29;;;;;;;11.73;8.18;;;;;;;18.93;42.70;99069.45;1763112;81;25413;-55
2021/04/29 16:31:56;;;;;;;19.40;9.00;;;;;;;18.88;43.09;99076.11;1763136;81;25505;-57
2021/04/29 16:34:23;;;;;;;12.70;8.60;;;;;;;18.82;43.02;99076.30;1731010;81;26708;-57
2021/04/29 16:36:50;;;;;;;14.78;8.55;;;;;;;18.76;43.20;99069.66;1762987;81;25432;-57
2021/04/29 16:39:17;;;;;;;19.12;9.28;;;;;;;18.72;43.95;99076.51;1762916;81;25439;-57
2021/04/29 16:41:44;;;;;;;10.30;8.23;;;;;;;18.67;43.92;99066.72;1746253;81;25440;-56
2021/04/29 16:44:11;;;;;;;13.83;8.68;;;;;;;18.64;44.17;99072.21;1712004;82;25456;-57
2021/04/29 16:46:38;;;;;;;11.53;8.13;;;;;;;18.57;44.94;99064.78;1732662;82;25713;-56
2021/04/29 16:49:05;;;;;;;11.43;8.18;;;;;;;18.54;44.75;99060.68;1745528;81;25528;-56
2021/04/29 16:51:32;;;;;;;13.05;8.63;;;;;;;18.52;44.83;99058.93;1733344;81;25448;-56
2021/04/29 16:54:00;;;;;;;14.60;9.05;;;;;;;18.51;45.23;99058.72;1761702;80;25447;-56
2021/04/29 16:56:26;;;;;;;12.23;8.33;;;;;;;18.50;45.43;99059.91;1775928;80;25344;-56
2021/04/29 16:58:54;;;;;;;12.55;8.63;;;;;;;18.47;45.63;99055.42;1759134;81;25798;-56
2021/04/29 17:01:20;;;;;;;15.78;8.00;;;;;;;18.44;45.52;99055.43;1759070;81;25479;-56
2021/04/29 17:03:50;;;;;;;17.90;8.95;;;;;;;18.43;45.89;99060.10;1759217;81;25408;-56
2021/04/29 17:06:17;;;;;;;20.50;9.05;;;;;;;18.40;46.16;99056.00;1758757;81;25073;-55